createdAt,value
2023-04-18T00:01:09.865Z,2.00
2023-04-18T00:03:38.353Z,1.95
2023-04-18T00:06:05.905Z,1.80
2023-04-18T00:08:35.643Z,2.10
2023-04-18T00:11:02.193Z,2.20
2023-04-18T00:13:28.787Z,1.73
2023-04-18T00:15:57.465Z,2.13
2023-04-18T00:18:27.919Z,2.22
2023-04-18T00:20:54.610Z,2.17
2023-04-18T00:23:22.446Z,2.38
2023-04-18T00:25:48.922Z,2.35
2023-04-18T00:28:17.671Z,2.20
2023-04-18T00:30:45.752Z,2.50
2023-04-18T00:33:12.240Z,2.90
2023-04-18T00:35:38.854Z,2.50
2023-04-18T00:38:07.180Z,2.42
2023-04-18T00:40:38.889Z,2.28
2023-04-18T00:43:07.685Z,2.30
2023-04-18T00:45:34.663Z,2.22
2023-04-18T00:48:02.109Z,2.40
2023-04-18T00:50:28.963Z,2.20
2023-04-18T00:52:56.317Z,2.15
2023-04-18T00:55:23.970Z,2.33
2023-04-18T00:57:50.989Z,2.30
2023-04-18T01:00:22.477Z,2.38
2023-04-18T01:02:53.223Z,2.75
2023-04-18T01:05:21.498Z,2.20
2023-04-18T01:07:50.287Z,2.33
2023-04-18T01:10:16.781Z,2.45
2023-04-18T01:12:43.288Z,2.47
2023-04-18T01:15:12.317Z,2.88
2023-04-18T01:17:39.721Z,2.90
2023-04-18T01:20:06.915Z,2.50
2023-04-18T01:22:45.345Z,2.58
2023-04-18T01:25:13.345Z,2.08
2023-04-18T01:27:39.866Z,2.70
2023-04-18T01:30:09.254Z,2.70
2023-04-18T01:32:35.955Z,2.63
2023-04-18T01:35:02.588Z,2.97
2023-04-18T01:37:33.442Z,2.25
2023-04-18T01:40:00.040Z,2.75
2023-04-18T01:42:26.575Z,2.60
2023-04-18T01:44:53.272Z,2.47
2023-04-18T01:47:20.318Z,3.08
2023-04-18T01:49:48.332Z,2.70
2023-04-18T01:52:15.000Z,2.33
2023-04-18T01:54:41.557Z,2.97
2023-04-18T01:57:08.215Z,2.55
2023-04-18T01:59:43.438Z,2.40
2023-04-18T02:02:11.361Z,2.42
2023-04-18T02:04:37.968Z,2.58
2023-04-18T02:07:05.000Z,2.67
2023-04-18T02:09:31.930Z,3.00
2023-04-18T02:11:59.627Z,2.92
2023-04-18T02:14:29.437Z,3.28
2023-04-18T02:16:55.998Z,3.30
2023-04-18T02:19:22.584Z,3.20
2023-04-18T02:21:55.880Z,3.08
2023-04-18T02:24:22.360Z,3.35
2023-04-18T02:26:49.703Z,3.50
2023-04-18T02:29:16.412Z,3.33
2023-04-18T02:31:42.977Z,3.53
2023-04-18T02:34:09.679Z,3.72
2023-04-18T02:36:38.209Z,3.70
2023-04-18T02:39:04.718Z,4.00
2023-04-18T02:41:31.268Z,4.03
2023-04-18T02:44:00.403Z,3.90
2023-04-18T02:46:28.796Z,3.70
2023-04-18T02:48:55.642Z,3.55
2023-04-18T02:51:22.289Z,3.60
2023-04-18T02:53:48.788Z,4.07
2023-04-18T02:56:17.191Z,3.70
2023-04-18T02:58:43.814Z,4.25
2023-04-18T03:01:10.993Z,4.13
2023-04-18T03:03:37.508Z,4.43
2023-04-18T03:06:06.487Z,4.03
2023-04-18T03:08:33.053Z,3.90
2023-04-18T03:10:59.787Z,3.55
2023-04-18T03:13:28.221Z,3.92
2023-04-18T03:15:54.790Z,4.00
2023-04-18T03:18:21.363Z,3.95
2023-04-18T03:20:49.718Z,3.90
2023-04-18T03:23:16.239Z,4.70
2023-04-18T03:25:42.772Z,4.20
2023-04-18T03:28:14.523Z,4.10
2023-04-18T03:30:42.713Z,4.32
2023-04-18T03:33:09.255Z,4.22
2023-04-18T03:35:37.610Z,3.83
2023-04-18T03:38:04.131Z,3.75
2023-04-18T03:40:30.694Z,3.95
2023-04-18T03:42:57.318Z,4.57
2023-04-18T03:45:23.787Z,3.90
2023-04-18T03:47:50.408Z,4.65
2023-04-18T03:50:17.299Z,4.57
2023-04-18T03:52:43.746Z,4.53
2023-04-18T03:55:11.456Z,4.03
2023-04-18T03:57:40.831Z,4.30
2023-04-18T04:00:08.663Z,4.30
2023-04-18T04:02:35.347Z,4.15
2023-04-18T04:05:04.449Z,4.47
2023-04-18T04:07:32.181Z,4.55
2023-04-18T04:09:58.811Z,4.70
2023-04-18T04:12:27.619Z,4.40
2023-04-18T04:14:59.623Z,4.00
2023-04-18T04:17:26.431Z,4.10
2023-04-18T04:19:55.448Z,4.07
2023-04-18T04:22:21.907Z,4.65
2023-04-18T04:24:48.400Z,4.90
2023-04-18T04:27:19.416Z,4.22
2023-04-18T04:29:45.946Z,4.38
2023-04-18T04:32:12.951Z,4.75
2023-04-18T04:34:43.099Z,5.13
2023-04-18T04:37:09.620Z,5.93
2023-04-18T04:39:37.968Z,5.47
2023-04-18T04:42:04.745Z,5.82
2023-04-18T04:44:31.470Z,5.60
2023-04-18T04:46:57.976Z,5.05
2023-04-18T04:49:29.021Z,5.63
2023-04-18T04:51:56.043Z,5.00
2023-04-18T04:54:22.519Z,5.80
2023-04-18T04:56:50.776Z,6.43
2023-04-18T04:59:17.634Z,5.60
2023-04-18T05:01:44.256Z,5.28
2023-04-18T05:04:11.146Z,6.00
2023-04-18T05:06:40.188Z,5.55
2023-04-18T05:09:06.918Z,5.35
2023-04-18T05:11:39.966Z,5.53
2023-04-18T05:14:06.522Z,5.88
2023-04-18T05:16:33.528Z,5.78
2023-04-18T05:19:02.549Z,5.95
2023-04-18T05:21:32.781Z,6.47
2023-04-18T05:23:59.251Z,6.70
2023-04-18T05:26:27.709Z,6.72
2023-04-18T05:28:54.243Z,6.80
2023-04-18T05:31:21.786Z,7.05
2023-04-18T05:33:54.561Z,6.53
2023-04-18T05:36:22.048Z,7.00
2023-04-18T05:38:48.561Z,6.47
2023-04-18T05:41:15.106Z,6.50
2023-04-18T05:43:51.111Z,6.45
2023-04-18T05:46:28.953Z,6.07
2023-04-18T05:48:57.223Z,7.85
2023-04-18T05:51:23.808Z,7.35
2023-04-18T05:53:50.495Z,8.05
2023-04-18T05:56:17.508Z,6.85
2023-04-18T05:58:47.910Z,7.60
2023-04-18T06:01:14.453Z,7.30
2023-04-18T06:03:41.798Z,6.82
2023-04-18T06:06:08.624Z,6.97
2023-04-18T06:08:35.415Z,6.90
2023-04-18T06:11:02.211Z,6.93
2023-04-18T06:13:28.747Z,7.05
2023-04-18T06:15:55.488Z,6.55
2023-04-18T06:18:23.768Z,7.22
2023-04-18T06:20:53.066Z,7.05
2023-04-18T06:23:19.635Z,7.07
2023-04-18T06:25:46.366Z,7.38
2023-04-18T06:28:13.144Z,7.10
2023-04-18T06:30:39.681Z,6.35
2023-04-18T06:33:12.210Z,7.43
2023-04-18T06:35:40.627Z,6.75
2023-04-18T06:38:07.291Z,7.35
2023-04-18T06:40:33.980Z,6.85
2023-04-18T06:43:00.608Z,8.00
2023-04-18T06:45:27.177Z,7.63
2023-04-18T06:47:53.994Z,8.00
2023-04-18T06:50:20.570Z,8.10
2023-04-18T06:52:47.207Z,7.10
2023-04-18T06:55:15.643Z,7.60
2023-04-18T06:57:42.997Z,7.80
2023-04-18T07:00:10.583Z,8.65
2023-04-18T07:02:46.904Z,8.25
2023-04-18T07:05:13.616Z,8.27
2023-04-18T07:07:40.387Z,7.82
2023-04-18T07:10:13.769Z,8.50
2023-04-18T07:12:40.314Z,8.10
2023-04-18T07:15:07.550Z,8.07
2023-04-18T07:17:35.849Z,6.82
2023-04-18T07:22:54.764Z,7.72
2023-04-18T07:25:21.603Z,8.23
2023-04-18T07:27:48.202Z,7.38
2023-04-18T07:30:17.274Z,8.00
2023-04-18T07:32:43.837Z,8.32
2023-04-18T07:35:10.658Z,8.45
2023-04-18T07:37:39.449Z,8.52
2023-04-18T07:40:06.658Z,7.88
2023-04-18T07:42:33.126Z,7.63
2023-04-18T07:44:59.864Z,7.97
2023-04-18T07:47:30.338Z,7.15
2023-04-18T07:49:57.543Z,7.65
2023-04-18T07:52:24.213Z,8.70
2023-04-18T07:54:50.757Z,8.60
2023-04-18T07:57:17.269Z,8.30
2023-04-18T07:59:50.319Z,7.88
2023-04-18T08:02:16.835Z,7.78
2023-04-18T08:04:43.510Z,8.32
2023-04-18T08:07:12.313Z,7.38
2023-04-18T08:09:38.824Z,7.90
2023-04-18T08:12:05.811Z,7.63
2023-04-18T08:14:34.131Z,7.97
2023-04-18T08:17:00.744Z,7.78
2023-04-18T08:19:27.455Z,7.78
2023-04-18T08:22:08.636Z,7.50
2023-04-18T08:24:35.269Z,6.95
2023-04-18T08:27:02.387Z,6.47
2023-04-18T08:29:29.208Z,6.78
2023-04-18T08:31:55.773Z,6.43
2023-04-18T08:34:22.659Z,6.40
2023-04-18T08:36:51.354Z,6.28
2023-04-18T08:39:17.840Z,5.95
2023-04-18T08:41:51.059Z,6.45
2023-04-18T08:44:24.143Z,6.57
2023-04-18T08:49:45.834Z,5.80
2023-04-18T08:52:19.015Z,5.93
2023-04-18T08:54:47.133Z,5.55
2023-04-18T08:57:23.737Z,6.43
2023-04-18T08:59:56.374Z,6.28
2023-04-18T09:02:38.983Z,5.70
2023-04-18T09:05:18.132Z,6.63
2023-04-18T09:07:45.281Z,6.22
2023-04-18T09:10:13.890Z,6.43
2023-04-18T09:12:51.367Z,5.53
2023-04-18T09:15:27.141Z,5.45
2023-04-18T09:17:58.517Z,5.90
2023-04-18T09:20:37.780Z,6.32
2023-04-18T09:23:14.677Z,5.70
2023-04-18T09:25:46.635Z,5.70
2023-04-18T09:28:31.186Z,5.63
2023-04-18T09:31:07.607Z,5.65
2023-04-18T09:33:34.162Z,5.45
2023-04-18T09:36:22.130Z,5.72
2023-04-18T09:38:55.336Z,5.75
2023-04-18T09:41:23.727Z,5.60
2023-04-18T09:43:50.471Z,5.60
2023-04-18T09:46:22.076Z,5.43
2023-04-18T09:48:48.611Z,5.45
2023-04-18T09:51:16.545Z,5.53
2023-04-18T09:53:49.445Z,5.40
2023-04-18T09:56:27.388Z,5.13
2023-04-18T09:59:21.106Z,5.53
2023-04-18T10:01:49.764Z,5.20
2023-04-18T10:04:17.559Z,4.90
2023-04-18T10:06:46.706Z,5.93
2023-04-18T10:09:16.479Z,5.60
2023-04-18T10:11:44.261Z,5.18
2023-04-18T10:14:14.039Z,5.03
2023-04-18T10:16:44.435Z,5.05
2023-04-18T10:19:29.500Z,5.80
2023-04-18T10:21:58.391Z,5.38
2023-04-18T10:24:49.779Z,4.90
2023-04-18T10:27:41.295Z,4.38
2023-04-18T10:30:09.221Z,4.57
2023-04-18T10:32:36.247Z,4.60
2023-04-18T10:35:03.046Z,4.53
2023-04-18T10:37:31.949Z,4.68
2023-04-18T10:40:02.480Z,4.57
2023-04-18T10:42:51.842Z,5.40
2023-04-18T10:45:23.281Z,5.72
2023-04-18T10:47:50.324Z,6.28
2023-04-18T10:50:18.087Z,5.75
2023-04-18T10:52:44.930Z,5.55
2023-04-18T10:55:17.211Z,6.22
2023-04-18T10:57:45.193Z,6.15
2023-04-18T11:00:18.837Z,5.93
2023-04-18T11:02:52.296Z,5.43
2023-04-18T11:05:22.002Z,5.43
2023-04-18T11:07:49.139Z,5.90
2023-04-18T11:10:27.191Z,6.32
2023-04-18T11:12:54.995Z,6.78
2023-04-18T11:15:24.477Z,5.85
2023-04-18T11:17:59.821Z,6.05
2023-04-18T11:20:29.639Z,7.35
2023-04-18T11:23:04.987Z,5.93
2023-04-18T11:25:36.459Z,6.57
2023-04-18T11:28:04.372Z,6.30
2023-04-18T11:30:43.223Z,6.13
2023-04-18T11:33:14.659Z,6.18
2023-04-18T11:35:49.076Z,6.68
2023-04-18T11:38:16.286Z,6.68
2023-04-18T11:40:49.774Z,6.80
2023-04-18T11:43:24.238Z,6.45
2023-04-18T11:46:01.079Z,5.97
2023-04-18T11:48:37.968Z,6.05
2023-04-18T11:51:06.467Z,6.20
2023-04-18T11:53:34.682Z,6.07
2023-04-18T11:56:05.279Z,5.78
2023-04-18T11:58:36.334Z,5.13
2023-04-18T12:01:37.554Z,6.18
2023-04-18T12:04:08.220Z,5.97
2023-04-18T12:06:55.660Z,5.85
2023-04-18T12:09:26.616Z,5.70
2023-04-18T12:12:05.684Z,5.30
2023-04-18T12:14:32.207Z,5.50
2023-04-18T12:17:03.205Z,6.95
2023-04-18T12:19:30.236Z,5.60
2023-04-18T12:22:03.274Z,5.95
2023-04-18T12:24:29.868Z,5.55
2023-04-18T12:26:58.226Z,5.10
2023-04-18T12:29:28.896Z,6.25
2023-04-18T12:31:55.696Z,6.10
2023-04-18T12:34:22.637Z,6.45
2023-04-18T12:36:49.400Z,5.03
2023-04-18T12:39:18.264Z,5.22
2023-04-18T12:41:48.912Z,5.80
2023-04-18T12:44:16.179Z,5.43
2023-04-18T12:46:42.722Z,5.10
2023-04-18T12:49:11.488Z,4.95
2023-04-18T12:51:40.665Z,5.28
2023-04-18T12:54:07.192Z,4.90
2023-04-18T12:56:33.876Z,4.88
2023-04-18T12:59:00.371Z,5.32
2023-04-18T13:01:27.882Z,5.30
2023-04-18T13:04:11.013Z,4.90
2023-04-18T13:06:39.313Z,4.72
2023-04-18T13:09:12.613Z,4.53
2023-04-18T13:11:39.170Z,4.50
2023-04-18T13:14:05.641Z,5.22
2023-04-18T13:16:32.405Z,4.50
2023-04-18T13:18:59.147Z,4.90
2023-04-18T13:21:26.007Z,4.75
2023-04-18T13:23:54.382Z,5.10
2023-04-18T13:26:20.894Z,5.20
2023-04-18T13:28:47.452Z,4.97
2023-04-18T13:31:22.509Z,4.43
2023-04-18T13:33:48.997Z,4.53
2023-04-18T13:36:15.478Z,4.18
2023-04-18T13:38:42.642Z,4.25
2023-04-18T13:41:12.817Z,4.13
2023-04-18T13:43:40.437Z,3.80
2023-04-18T13:46:08.779Z,4.18
2023-04-18T13:48:35.464Z,3.35
2023-04-18T13:51:02.876Z,3.63
2023-04-18T13:53:31.566Z,3.15
2023-04-18T13:56:01.766Z,3.20
2023-04-18T13:58:28.260Z,2.97
2023-04-18T14:00:54.905Z,3.63
2023-04-18T14:03:21.601Z,3.20
2023-04-18T14:05:48.190Z,4.07
2023-04-18T14:08:14.841Z,3.78
2023-04-18T14:10:41.550Z,4.63
2023-04-18T14:13:08.080Z,3.95
2023-04-18T14:15:35.182Z,3.42
2023-04-18T14:18:01.903Z,3.40
2023-04-18T14:20:36.473Z,3.28
2023-04-18T14:23:03.288Z,3.38
2023-04-18T14:25:30.365Z,3.30
2023-04-18T14:28:13.824Z,3.72
2023-04-18T14:30:40.619Z,5.60
2023-04-18T14:33:08.729Z,4.68
2023-04-18T14:35:35.416Z,4.55
2023-04-18T14:38:01.987Z,4.13
2023-04-18T14:40:33.712Z,4.22
2023-04-18T14:43:00.647Z,3.90
2023-04-18T14:45:27.262Z,3.50
2023-04-18T14:47:55.614Z,3.45
2023-04-18T14:50:24.181Z,3.03
2023-04-18T14:52:51.072Z,3.05
2023-04-18T14:55:19.469Z,2.80
2023-04-18T14:57:53.697Z,2.80
2023-04-18T15:00:20.663Z,2.80
2023-04-18T15:02:47.387Z,3.33
2023-04-18T15:05:14.176Z,2.90
2023-04-18T15:07:42.922Z,3.08
2023-04-18T15:10:12.645Z,3.42
2023-04-18T15:12:41.479Z,2.70
2023-04-18T15:15:08.379Z,3.08
2023-04-18T15:17:35.953Z,3.83
2023-04-18T15:20:07.329Z,3.38
2023-04-18T15:22:34.636Z,3.75
2023-04-18T15:25:01.105Z,3.47
2023-04-18T15:27:29.336Z,3.50
2023-04-18T15:29:56.601Z,3.20
2023-04-18T15:32:23.312Z,3.30
2023-04-18T15:34:50.374Z,3.25
2023-04-18T15:37:16.908Z,3.05
2023-04-18T15:39:43.642Z,3.20
2023-04-18T15:42:10.405Z,3.58
2023-04-18T15:44:40.820Z,3.40
2023-04-18T15:47:07.748Z,4.07
2023-04-18T15:49:34.496Z,4.10
2023-04-18T15:52:06.919Z,4.07
2023-04-18T15:54:33.442Z,4.00
2023-04-18T15:57:01.749Z,3.72
2023-04-18T15:59:28.292Z,3.60
2023-04-18T16:01:56.870Z,3.88
2023-04-18T16:04:26.440Z,3.75
2023-04-18T16:06:52.892Z,4.13
2023-04-18T16:09:19.375Z,3.40
2023-04-18T16:11:47.691Z,3.40
2023-04-18T16:14:14.434Z,3.45
2023-04-18T16:16:41.283Z,3.50
2023-04-18T16:19:07.933Z,3.33
2023-04-18T16:21:34.520Z,3.55
2023-04-18T16:24:03.009Z,4.57
2023-04-18T16:26:31.446Z,3.83
2023-04-18T16:28:58.085Z,4.03
2023-04-18T16:31:24.594Z,3.97
2023-04-18T16:34:01.190Z,4.30
2023-04-18T16:36:34.358Z,4.38
2023-04-18T16:39:05.194Z,3.67
2023-04-18T16:41:31.805Z,3.55
2023-04-18T16:43:58.383Z,3.60
2023-04-18T16:46:25.389Z,3.17
2023-04-18T16:48:53.660Z,3.33
2023-04-18T16:51:20.587Z,3.72
2023-04-18T16:53:47.236Z,3.50
2023-04-18T16:56:14.331Z,3.92
2023-04-18T16:58:41.052Z,3.45
2023-04-18T17:01:08.309Z,3.50
2023-04-18T17:03:41.345Z,3.08
2023-04-18T17:06:07.943Z,4.38
2023-04-18T17:08:34.492Z,4.53
2023-04-18T17:11:04.356Z,3.78
2023-04-18T17:13:32.631Z,4.22
2023-04-18T17:15:59.152Z,3.40
2023-04-18T17:18:25.865Z,3.03
2023-04-18T17:20:52.523Z,3.30
2023-04-18T17:23:19.151Z,2.90
2023-04-18T17:25:52.580Z,3.25
2023-04-18T17:28:19.106Z,3.58
2023-04-18T17:30:45.918Z,3.80
2023-04-18T17:33:14.268Z,3.70
2023-04-18T17:35:44.671Z,3.40
2023-04-18T17:38:11.508Z,3.63
2023-04-18T17:40:38.176Z,3.30
2023-04-18T17:43:04.673Z,3.40
2023-04-18T17:45:31.405Z,3.50
2023-04-18T17:47:59.567Z,3.33
2023-04-18T17:50:26.106Z,3.13
2023-04-18T17:52:52.569Z,3.20
2023-04-18T17:55:21.396Z,3.08
2023-04-18T17:57:49.888Z,3.03
2023-04-18T18:00:17.464Z,3.60
2023-04-18T18:02:44.295Z,3.47
2023-04-18T18:05:16.864Z,2.95
2023-04-18T18:07:47.518Z,3.67
2023-04-18T18:10:19.061Z,3.60
2023-04-18T18:12:46.145Z,3.47
2023-04-18T18:15:14.522Z,3.60
2023-04-18T18:17:41.282Z,3.90
2023-04-18T18:20:09.896Z,3.25
2023-04-18T18:22:39.477Z,3.05
2023-04-18T18:25:06.492Z,3.47
2023-04-18T18:27:33.007Z,3.20
2023-04-18T18:30:01.465Z,3.80
2023-04-18T18:32:28.063Z,3.80
2023-04-18T18:34:54.870Z,3.40
2023-04-18T18:37:25.483Z,3.92
2023-04-18T18:39:54.252Z,3.20
2023-04-18T18:42:20.876Z,3.22
2023-04-18T18:44:49.095Z,3.28
2023-04-18T18:47:17.253Z,2.90
2023-04-18T18:49:44.062Z,3.65
2023-04-18T18:52:10.941Z,3.33
2023-04-18T18:54:37.449Z,3.53
2023-04-18T18:57:04.037Z,4.03
2023-04-18T18:59:32.274Z,3.50
2023-04-18T19:02:02.467Z,3.90
2023-04-18T19:04:29.153Z,3.50
2023-04-18T19:06:55.923Z,3.80
2023-04-18T19:09:22.414Z,4.15
2023-04-18T19:11:54.529Z,3.67
2023-04-18T19:14:23.019Z,3.60
2023-04-18T19:16:50.287Z,3.78
2023-04-18T19:19:17.536Z,3.63
2023-04-18T19:21:50.336Z,3.40
2023-04-18T19:24:17.745Z,3.70
2023-04-18T19:26:44.396Z,4.57
2023-04-18T19:29:13.630Z,3.90
2023-04-18T19:31:40.670Z,3.90
2023-04-18T19:34:11.948Z,4.28
2023-04-18T19:36:38.691Z,3.67
2023-04-18T19:39:05.195Z,3.67
2023-04-18T19:41:31.637Z,4.57
2023-04-18T19:43:58.425Z,4.10
2023-04-18T19:46:24.893Z,4.53
2023-04-18T19:48:51.410Z,4.05
2023-04-18T19:51:19.674Z,4.90
2023-04-18T19:53:46.178Z,3.75
2023-04-18T19:56:14.294Z,3.55
2023-04-18T19:58:46.924Z,3.60
2023-04-18T20:01:16.562Z,3.60
2023-04-18T20:03:43.302Z,4.15
2023-04-18T20:06:12.401Z,3.70
2023-04-18T20:08:43.103Z,3.60
2023-04-18T20:11:10.691Z,3.83
2023-04-18T20:13:39.494Z,3.92
2023-04-18T20:16:07.799Z,3.70
2023-04-18T20:18:37.539Z,3.97
2023-04-18T20:21:07.358Z,4.50
2023-04-18T20:23:37.750Z,4.15
2023-04-18T20:26:04.603Z,4.03
2023-04-18T20:28:32.113Z,5.05
2023-04-18T20:30:58.953Z,4.45
2023-04-18T20:33:25.541Z,4.97
2023-04-18T20:36:03.719Z,4.43
2023-04-18T20:38:31.409Z,4.45
2023-04-18T20:41:00.975Z,4.20
2023-04-18T20:43:29.710Z,4.25
2023-04-18T20:45:58.683Z,4.70
2023-04-18T20:48:25.571Z,4.03
2023-04-18T20:50:54.350Z,4.20
2023-04-18T20:53:22.325Z,4.05
2023-04-18T20:55:48.950Z,4.20
2023-04-18T20:58:23.444Z,4.22
2023-04-18T21:00:50.003Z,4.25
2023-04-18T21:03:16.947Z,4.20
2023-04-18T21:05:46.686Z,4.05
2023-04-18T21:08:13.187Z,3.80
2023-04-18T21:10:42.200Z,3.75
2023-04-18T21:13:11.124Z,3.80
2023-04-18T21:15:38.202Z,4.50
2023-04-18T21:18:04.772Z,4.78
2023-04-18T21:20:31.417Z,4.10
2023-04-18T21:22:58.249Z,4.40
2023-04-18T21:25:24.724Z,4.63
2023-04-18T21:27:51.448Z,4.10
2023-04-18T21:30:18.155Z,3.92
2023-04-18T21:32:46.089Z,4.60
2023-04-18T21:35:20.219Z,4.45
2023-04-18T21:37:47.874Z,4.28
2023-04-18T21:40:14.706Z,4.35
2023-04-18T21:42:43.423Z,4.18
2023-04-18T21:45:11.723Z,4.97
2023-04-18T21:47:38.531Z,3.90
2023-04-18T21:50:05.857Z,3.80
2023-04-18T21:52:32.311Z,4.38
2023-04-18T21:54:59.343Z,4.07
2023-04-18T21:57:35.549Z,4.43
2023-04-18T22:00:08.404Z,4.10
2023-04-18T22:02:45.213Z,4.22
2023-04-18T22:05:12.933Z,5.07
2023-04-18T22:07:54.496Z,4.00
2023-04-18T22:10:25.027Z,3.97
2023-04-18T22:12:54.056Z,4.45
2023-04-18T22:15:20.854Z,4.22
2023-04-18T22:17:52.326Z,3.75
2023-04-18T22:20:18.921Z,4.38
2023-04-18T22:22:45.751Z,4.13
2023-04-18T22:25:12.423Z,4.22
2023-04-18T22:27:42.584Z,4.50
2023-04-18T22:30:09.699Z,4.30
2023-04-18T22:32:38.479Z,4.22
2023-04-18T22:35:06.694Z,4.60
2023-04-18T22:37:33.429Z,4.07
2023-04-18T22:40:00.151Z,4.38
2023-04-18T22:42:26.637Z,4.28
2023-04-18T22:44:53.113Z,4.40
2023-04-18T22:47:25.966Z,4.32
2023-04-18T22:49:54.770Z,4.15
2023-04-18T22:52:24.793Z,4.13
2023-04-18T22:54:56.456Z,4.07
2023-04-18T22:57:22.941Z,4.60
2023-04-18T22:59:49.404Z,5.05
2023-04-18T23:02:21.765Z,4.72
2023-04-18T23:04:49.333Z,4.50
2023-04-18T23:07:16.822Z,4.90
2023-04-18T23:09:45.214Z,4.63
2023-04-18T23:12:11.725Z,4.80
2023-04-18T23:14:41.802Z,4.30
2023-04-18T23:17:08.759Z,4.07
2023-04-18T23:19:35.374Z,4.78
2023-04-18T23:22:01.898Z,4.30
2023-04-18T23:24:38.594Z,4.10
2023-04-18T23:27:07.442Z,4.45
2023-04-18T23:29:39.213Z,4.00
2023-04-18T23:32:06.492Z,4.32
2023-04-18T23:34:34.813Z,3.80
2023-04-18T23:37:03.285Z,4.35
2023-04-18T23:39:29.781Z,3.60
2023-04-18T23:41:56.427Z,3.90
2023-04-18T23:44:23.121Z,4.63
2023-04-18T23:46:49.805Z,4.15
2023-04-18T23:49:20.870Z,3.90
2023-04-18T23:51:47.337Z,4.30
2023-04-18T23:54:14.017Z,4.50
2023-04-18T23:56:49.250Z,4.32
2023-04-18T23:59:15.884Z,4.53
